Anthony, New Mexico
Current Conditions -  °F | °C
As of 1:58 AM on Saturday 25 Oct 2014 (Local Time) from KBIF Reporting Station
Clear Clear  
Wind Chill: 13°   Ceiling: Unl
Heat Index: 13°   Visibility: 10mi
Dew Point: 11°   Wind: 2mph
Humidity: 88%   Direction: 340°NNW
Pressure: 30.21"   Gusts: NA
Location:  32°N, 106.6°W
Report Text: KBIF 250758Z AUTO 34002KT 10SM CLR 13/11 A3021 RMK AO2 SLP181 T01250105 $
Loading
Personal Weather Stations






























Interactive Weather Map
Tropical Storm Tracking
New forecast layout! Learn more

10-Day Weather Forecast

Advertisements
Track Severe Weather on mobile